createdAt,value
2018-11-02T00:00:17.018Z,13.33
2018-11-02T00:02:45.190Z,12.20
2018-11-02T00:05:13.458Z,11.67
2018-11-02T00:07:41.659Z,11.80
2018-11-02T00:10:09.876Z,9.97
2018-11-02T00:12:38.032Z,10.57
2018-11-02T00:15:06.694Z,10.53
2018-11-02T00:17:36.308Z,10.77
2018-11-02T00:20:05.486Z,11.77
2018-11-02T00:22:33.772Z,11.70
2018-11-02T00:25:02.804Z,13.60
2018-11-02T00:27:37.105Z,12.77
2018-11-02T00:30:06.781Z,11.80
2018-11-02T00:32:35.001Z,11.23
2018-11-02T00:35:03.284Z,10.43
2018-11-02T00:37:31.476Z,12.27
2018-11-02T00:39:59.755Z,12.23
2018-11-02T00:42:28.210Z,13.83
2018-11-02T00:44:56.450Z,15.53
2018-11-02T00:47:24.660Z,14.77
2018-11-02T00:49:52.881Z,15.50
2018-11-02T00:52:21.029Z,17.50
2018-11-02T00:54:49.397Z,20.33
2018-11-02T00:57:17.595Z,17.50
2018-11-02T00:59:45.853Z,11.47
2018-11-02T01:02:14.045Z,12.83
2018-11-02T01:04:42.322Z,12.13
2018-11-02T01:07:10.519Z,9.40
2018-11-02T01:09:38.802Z,9.70
2018-11-02T01:12:07.055Z,9.57
2018-11-02T01:14:35.224Z,10.43
2018-11-02T01:17:03.447Z,10.50
2018-11-02T01:19:32.468Z,10.50
2018-11-02T01:22:02.627Z,11.10
2018-11-02T01:24:31.016Z,12.80
2018-11-02T01:26:59.199Z,13.87
2018-11-02T01:29:45.942Z,15.87
2018-11-02T01:32:14.163Z,12.80
2018-11-02T01:34:42.424Z,14.33
2018-11-02T01:37:10.609Z,20.47
2018-11-02T01:39:38.859Z,20.87
2018-11-02T01:42:07.083Z,13.83
2018-11-02T01:44:35.428Z,16.50
2018-11-02T01:47:03.686Z,24.70
2018-11-02T01:49:36.941Z,19.77
2018-11-02T01:52:05.482Z,22.60
2018-11-02T01:54:33.732Z,15.23
2018-11-02T01:57:01.977Z,13.17
2018-11-02T01:59:30.214Z,13.63
2018-11-02T02:01:58.530Z,12.50
2018-11-02T02:04:26.830Z,13.60
2018-11-02T02:06:55.070Z,15.93
2018-11-02T02:09:32.793Z,13.53
2018-11-02T02:12:01.015Z,13.20
2018-11-02T02:14:29.320Z,12.10
2018-11-02T02:16:57.495Z,15.37
2018-11-02T02:19:25.684Z,17.00
2018-11-02T02:21:54.063Z,12.73
2018-11-02T02:24:22.264Z,15.70
2018-11-02T02:26:50.541Z,18.47
2018-11-02T02:29:18.764Z,17.60
2018-11-02T02:31:46.917Z,12.30
2018-11-02T02:34:15.001Z,15.13
2018-11-02T02:36:44.283Z,13.60
2018-11-02T02:39:12.410Z,14.10
2018-11-02T02:41:40.598Z,14.23
2018-11-02T02:44:08.799Z,18.20
2018-11-02T02:46:37.214Z,20.13
2018-11-02T02:49:06.114Z,16.77
2018-11-02T02:51:34.247Z,15.33
2018-11-02T02:54:02.645Z,11.30
2018-11-02T02:56:30.934Z,12.40
2018-11-02T02:59:04.423Z,10.10
2018-11-02T03:01:32.643Z,11.40
2018-11-02T03:04:00.839Z,11.23
2018-11-02T03:06:29.636Z,11.57
2018-11-02T03:08:57.822Z,10.87
2018-11-02T03:11:26.067Z,11.93
2018-11-02T03:13:54.252Z,11.00
2018-11-02T03:16:22.395Z,12.27
2018-11-02T03:18:51.363Z,11.17
2018-11-02T03:21:19.386Z,10.50
2018-11-02T03:23:47.492Z,10.77
2018-11-02T03:26:15.699Z,11.43
2018-11-02T03:28:43.933Z,9.73
2018-11-02T03:31:12.140Z,9.80
2018-11-02T03:33:40.384Z,12.23
2018-11-02T03:36:09.590Z,11.50
2018-11-02T03:38:43.915Z,12.10
2018-11-02T03:41:12.119Z,9.97
2018-11-02T03:43:40.363Z,10.43
2018-11-02T03:46:08.564Z,10.77
2018-11-02T03:48:36.731Z,10.33
2018-11-02T03:51:05.104Z,16.23
2018-11-02T03:53:33.278Z,12.13
2018-11-02T03:56:02.508Z,10.93
2018-11-02T03:58:40.224Z,10.60
2018-11-02T04:01:08.419Z,9.63
2018-11-02T04:03:37.301Z,9.90
2018-11-02T04:06:06.908Z,8.73
2018-11-02T04:08:35.139Z,10.07
2018-11-02T04:11:03.339Z,10.53
2018-11-02T04:13:31.528Z,8.17
2018-11-02T04:15:59.674Z,9.40
2018-11-02T04:18:27.913Z,8.63
2018-11-02T04:20:56.160Z,9.37
2018-11-02T04:23:24.290Z,9.03
2018-11-02T04:25:52.517Z,8.37
2018-11-02T04:28:20.758Z,8.57
2018-11-02T04:30:49.001Z,8.97
2018-11-02T04:33:17.110Z,9.37
2018-11-02T04:35:45.389Z,10.00
2018-11-02T04:38:13.564Z,9.87
2018-11-02T04:40:43.020Z,16.30
2018-11-02T04:43:11.133Z,12.37
2018-11-02T04:45:40.208Z,10.30
2018-11-02T04:48:10.066Z,8.40
2018-11-02T04:50:38.899Z,10.80
2018-11-02T04:53:07.167Z,11.00
2018-11-02T04:55:35.387Z,15.40
2018-11-02T04:58:03.633Z,12.83
2018-11-02T05:00:32.162Z,11.50
2018-11-02T05:03:01.168Z,11.47
2018-11-02T05:05:29.293Z,10.37
2018-11-02T05:07:58.218Z,9.77
2018-11-02T05:10:27.150Z,10.87
2018-11-02T05:12:56.190Z,11.13
2018-11-02T05:15:24.368Z,12.77
2018-11-02T05:17:52.670Z,11.23
2018-11-02T05:20:20.846Z,10.70
2018-11-02T05:22:49.728Z,10.67
2018-11-02T05:25:17.948Z,12.00
2018-11-02T05:27:46.145Z,10.47
2018-11-02T05:30:14.386Z,22.30
2018-11-02T05:32:42.594Z,14.33
2018-11-02T05:35:10.829Z,13.93
2018-11-02T05:37:38.970Z,11.93
2018-11-02T05:40:07.827Z,11.17
2018-11-02T05:42:36.157Z,15.17
2018-11-02T05:45:05.530Z,14.77
2018-11-02T05:47:33.995Z,10.70
2018-11-02T05:50:02.311Z,33.63
2018-11-02T05:52:31.788Z,19.27
2018-11-02T05:55:00.166Z,14.83
2018-11-02T05:57:28.395Z,13.97
2018-11-02T05:59:56.596Z,12.10
2018-11-02T06:02:24.762Z,13.83
2018-11-02T06:04:52.859Z,11.43
2018-11-02T06:07:21.172Z,15.43
2018-11-02T06:09:49.341Z,18.67
2018-11-02T06:12:17.645Z,16.30
2018-11-02T06:14:45.895Z,12.40
2018-11-02T06:17:14.023Z,13.93
2018-11-02T06:19:42.405Z,12.70
2018-11-02T06:22:10.629Z,11.60
2018-11-02T06:24:38.827Z,11.83
2018-11-02T06:27:06.991Z,18.60
2018-11-02T06:29:35.256Z,13.17
2018-11-02T06:32:03.502Z,10.43
2018-11-02T06:34:31.693Z,9.10
2018-11-02T06:36:59.855Z,8.63
2018-11-02T06:39:28.104Z,8.27
2018-11-02T06:41:56.665Z,9.40
2018-11-02T06:44:24.835Z,11.37
2018-11-02T06:46:53.094Z,9.20
2018-11-02T06:49:21.277Z,9.97
2018-11-02T06:51:49.462Z,10.90
2018-11-02T06:54:17.660Z,10.60
2018-11-02T06:56:45.928Z,10.33
2018-11-02T06:59:14.094Z,11.90
2018-11-02T07:01:42.433Z,10.57
2018-11-02T07:04:10.944Z,9.87
2018-11-02T07:06:39.184Z,9.73
2018-11-02T07:09:09.600Z,9.57
2018-11-02T07:11:37.888Z,10.50
2018-11-02T07:14:06.578Z,10.03
2018-11-02T07:16:34.769Z,10.13
2018-11-02T07:19:03.040Z,10.03
2018-11-02T07:21:31.217Z,11.27
2018-11-02T07:23:59.446Z,13.10
2018-11-02T07:26:27.797Z,14.10
2018-11-02T07:28:56.016Z,9.70
2018-11-02T07:31:24.175Z,11.30
2018-11-02T07:33:52.316Z,11.70
2018-11-02T07:36:20.527Z,11.67
2018-11-02T07:38:48.705Z,16.20
2018-11-02T07:41:16.857Z,15.83
2018-11-02T07:43:44.967Z,19.23
2018-11-02T07:46:13.125Z,20.03
2018-11-02T07:48:41.468Z,19.43
2018-11-02T07:51:09.722Z,15.73
2018-11-02T07:53:37.959Z,16.37
2018-11-02T07:56:06.213Z,15.20
2018-11-02T07:58:39.807Z,22.03
2018-11-02T08:01:08.198Z,17.27
2018-11-02T08:03:36.344Z,23.43
2018-11-02T08:06:04.705Z,28.90
2018-11-02T08:08:32.969Z,18.20
2018-11-02T08:11:01.146Z,18.10
2018-11-02T08:13:29.416Z,17.07
2018-11-02T08:15:57.682Z,16.23
2018-11-02T08:18:25.949Z,13.67
2018-11-02T08:20:54.107Z,15.10
2018-11-02T08:23:22.211Z,12.40
2018-11-02T08:25:50.505Z,12.70
2018-11-02T08:28:24.010Z,9.33
2018-11-02T08:30:52.788Z,12.60
2018-11-02T08:33:20.954Z,16.67
2018-11-02T08:35:49.243Z,22.07
2018-11-02T08:38:17.500Z,18.67
2018-11-02T08:40:45.692Z,13.97
2018-11-02T08:43:13.896Z,13.17
2018-11-02T08:45:42.738Z,13.93
2018-11-02T08:48:11.150Z,14.20
2018-11-02T08:50:39.363Z,20.93
2018-11-02T08:53:07.490Z,17.27
2018-11-02T08:55:35.721Z,16.57
2018-11-02T08:58:09.387Z,14.50
2018-11-02T09:00:37.303Z,14.00
2018-11-02T09:03:05.605Z,17.43
2018-11-02T09:05:33.811Z,15.10
2018-11-02T09:08:06.969Z,10.03
2018-11-02T09:10:35.134Z,11.67
2018-11-02T09:13:03.429Z,12.70
2018-11-02T09:15:31.633Z,12.80
2018-11-02T09:18:00.042Z,11.90
2018-11-02T09:20:28.074Z,11.17
2018-11-02T09:22:56.865Z,13.10
2018-11-02T09:25:25.047Z,11.60
2018-11-02T09:27:53.258Z,12.37
2018-11-02T09:30:21.406Z,11.27
2018-11-02T09:32:49.839Z,11.57
2018-11-02T09:35:18.015Z,11.63
2018-11-02T09:37:51.288Z,11.30
2018-11-02T09:40:19.490Z,11.57
2018-11-02T09:42:47.774Z,9.80
2018-11-02T09:45:15.816Z,10.83
2018-11-02T09:47:44.277Z,9.77
2018-11-02T09:50:12.753Z,9.07
2018-11-02T09:52:41.032Z,8.57
2018-11-02T09:55:11.837Z,8.97
2018-11-02T09:57:40.210Z,9.07
2018-11-02T10:00:09.843Z,7.93
2018-11-02T10:02:38.098Z,8.83
2018-11-02T10:05:08.113Z,9.43
2018-11-02T10:07:37.316Z,8.20
2018-11-02T10:10:07.330Z,9.27
2018-11-02T10:12:35.630Z,9.17
2018-11-02T10:15:04.386Z,10.00
2018-11-02T10:17:33.083Z,9.40
2018-11-02T10:20:01.326Z,9.00
2018-11-02T10:22:29.554Z,9.90
2018-11-02T10:24:57.775Z,9.40
2018-11-02T10:27:26.201Z,9.13
2018-11-02T10:29:54.535Z,9.40
2018-11-02T10:32:22.855Z,9.57
2018-11-02T10:34:51.705Z,10.10
2018-11-02T10:37:19.952Z,9.53
2018-11-02T10:39:48.538Z,9.43
2018-11-02T10:42:16.941Z,10.63
2018-11-02T10:44:45.813Z,9.60
2018-11-02T10:47:14.383Z,9.53
2018-11-02T10:49:42.860Z,8.33
2018-11-02T10:52:11.113Z,8.77
2018-11-02T10:54:39.389Z,7.63
2018-11-02T10:57:07.581Z,4.30
2018-11-02T10:59:36.004Z,5.07
2018-11-02T11:02:06.692Z,5.47
2018-11-02T11:04:35.385Z,6.50
2018-11-02T11:07:03.752Z,6.30
2018-11-02T11:09:32.013Z,7.40
2018-11-02T11:12:00.334Z,7.30
2018-11-02T11:14:28.847Z,7.43
2018-11-02T11:16:57.088Z,6.97
2018-11-02T11:19:25.496Z,7.72
2018-11-02T11:21:53.808Z,7.22
2018-11-02T11:24:22.992Z,6.87
2018-11-02T11:26:51.266Z,6.07
2018-11-02T11:29:19.751Z,6.63
2018-11-02T11:31:47.982Z,4.23
2018-11-02T11:34:16.252Z,6.30
2018-11-02T11:36:44.552Z,5.33
2018-11-02T11:39:14.400Z,4.73
2018-11-02T11:41:43.657Z,4.70
2018-11-02T11:44:13.306Z,4.77
2018-11-02T11:46:41.502Z,3.60
2018-11-02T11:49:10.135Z,3.77
2018-11-02T11:51:38.393Z,3.73
2018-11-02T11:54:06.582Z,3.53
2018-11-02T11:56:34.721Z,3.47
2018-11-02T11:59:04.305Z,3.07
2018-11-02T12:01:32.607Z,3.27
2018-11-02T12:04:00.882Z,7.90
2018-11-02T12:06:29.082Z,7.43
2018-11-02T12:08:57.257Z,8.23
2018-11-02T12:11:25.588Z,5.53
2018-11-02T12:13:53.791Z,5.10
2018-11-02T12:16:21.987Z,6.37
2018-11-02T12:18:50.420Z,6.30
2018-11-02T12:21:18.705Z,4.63
2018-11-02T12:23:46.892Z,2.73
2018-11-02T12:26:15.141Z,2.47
2018-11-02T12:28:44.539Z,2.27
2018-11-02T12:31:15.721Z,2.20
2018-11-02T12:33:45.229Z,3.97
2018-11-02T12:36:14.950Z,6.83
2018-11-02T12:38:45.062Z,18.10
2018-11-02T12:41:15.078Z,11.90
2018-11-02T12:43:44.910Z,10.80
2018-11-02T12:46:14.614Z,10.87
2018-11-02T12:48:51.710Z,11.27
2018-11-02T12:51:21.721Z,10.87
2018-11-02T12:53:51.941Z,6.53
2018-11-02T12:56:21.587Z,5.60
2018-11-02T12:58:57.766Z,5.20
2018-11-02T13:01:29.166Z,6.20
2018-11-02T13:03:59.027Z,4.90
2018-11-02T13:06:31.367Z,5.70
2018-11-02T13:09:10.505Z,5.63
2018-11-02T13:11:41.523Z,24.80
2018-11-02T13:14:11.914Z,6.23
2018-11-02T13:16:51.369Z,11.73
2018-11-02T13:19:21.936Z,6.83
2018-11-02T13:21:52.328Z,3.73
2018-11-02T13:24:41.252Z,3.20
2018-11-02T13:27:12.263Z,3.47
2018-11-02T13:29:43.156Z,3.60
2018-11-02T13:32:14.911Z,3.00
2018-11-02T13:34:46.257Z,2.53
2018-11-02T13:37:23.134Z,2.60
2018-11-02T13:39:53.070Z,2.70
2018-11-02T13:42:24.425Z,3.40
2018-11-02T13:44:55.636Z,2.90
2018-11-02T13:47:47.752Z,2.80
2018-11-02T13:56:23.230Z,2.50
2018-11-02T14:02:00.268Z,2.10
2018-11-02T14:10:58.704Z,2.50
2018-11-02T14:13:34.216Z,3.00
2018-11-02T14:19:03.140Z,2.00
2018-11-02T14:21:31.447Z,2.53
2018-11-02T14:23:59.758Z,10.90
2018-11-02T14:26:28.088Z,3.30
2018-11-02T14:28:57.096Z,2.23
2018-11-02T14:31:25.484Z,3.07
2018-11-02T14:33:53.848Z,3.10
2018-11-02T14:36:23.074Z,2.63
2018-11-02T14:38:51.437Z,3.60
2018-11-02T14:41:21.351Z,3.33
2018-11-02T14:43:49.882Z,3.40
2018-11-02T14:46:18.422Z,3.93
2018-11-02T14:48:47.698Z,4.50
2018-11-02T14:51:16.469Z,4.30
2018-11-02T14:53:45.022Z,3.80
2018-11-02T14:56:13.960Z,3.93
2018-11-02T14:58:42.186Z,4.10
2018-11-02T15:01:11.268Z,4.40
2018-11-02T15:03:39.697Z,4.40
2018-11-02T15:06:08.056Z,3.83
2018-11-02T15:08:36.340Z,3.80
2018-11-02T15:11:05.831Z,3.97
2018-11-02T15:13:34.237Z,3.70
2018-11-02T15:16:02.605Z,4.27
2018-11-02T15:18:30.960Z,5.83
2018-11-02T15:20:59.881Z,5.57
2018-11-02T15:23:29.120Z,5.27
2018-11-02T15:25:57.468Z,4.70
2018-11-02T15:28:25.842Z,4.57
2018-11-02T15:30:54.407Z,4.67
2018-11-02T15:33:22.824Z,4.53
2018-11-02T15:35:51.144Z,3.87
2018-11-02T15:38:19.424Z,3.67
2018-11-02T15:40:47.828Z,3.83
2018-11-02T15:43:16.512Z,6.90
2018-11-02T15:45:45.631Z,4.30
2018-11-02T15:48:13.861Z,4.27
2018-11-02T15:50:42.124Z,5.23
2018-11-02T15:53:13.132Z,5.73
2018-11-02T15:55:41.255Z,4.80
2018-11-02T15:58:09.451Z,4.30
2018-11-02T16:00:38.012Z,4.40
2018-11-02T16:03:06.262Z,4.13
2018-11-02T16:05:35.122Z,3.80
2018-11-02T16:08:03.491Z,4.57
2018-11-02T16:10:32.970Z,3.43
2018-11-02T16:13:01.136Z,3.63
2018-11-02T16:15:29.314Z,6.03
2018-11-02T16:17:57.489Z,5.80
2018-11-02T16:20:25.704Z,9.50
2018-11-02T16:22:53.894Z,8.47
2018-11-02T16:25:22.106Z,7.67
2018-11-02T16:27:50.283Z,7.50
2018-11-02T16:30:18.438Z,8.03
2018-11-02T16:32:46.647Z,9.00
2018-11-02T16:35:14.818Z,18.63
2018-11-02T16:37:43.017Z,13.90
2018-11-02T16:40:13.328Z,17.10
2018-11-02T16:42:51.206Z,12.43
2018-11-02T16:45:19.433Z,10.23
2018-11-02T16:47:47.691Z,17.33
2018-11-02T16:50:15.926Z,11.53
2018-11-02T16:52:45.564Z,10.33
2018-11-02T16:55:13.789Z,9.57
2018-11-02T16:57:42.116Z,7.73
2018-11-02T17:00:14.247Z,6.90
2018-11-02T17:02:43.051Z,7.13
2018-11-02T17:05:11.266Z,6.77
2018-11-02T17:07:40.036Z,8.83
2018-11-02T17:10:09.554Z,11.63
2018-11-02T17:12:38.388Z,11.87
2018-11-02T17:15:07.126Z,13.33
2018-11-02T17:17:35.586Z,14.40
2018-11-02T17:20:06.111Z,13.93
2018-11-02T17:22:34.277Z,12.30
2018-11-02T17:25:02.500Z,13.53
2018-11-02T17:27:30.651Z,11.40
2018-11-02T17:29:58.805Z,9.73
2018-11-02T17:32:27.041Z,5.90
2018-11-02T17:34:55.224Z,4.63
2018-11-02T17:37:23.464Z,4.30
2018-11-02T17:39:51.564Z,3.87
2018-11-02T17:42:20.013Z,4.50
2018-11-02T17:44:49.135Z,5.50
2018-11-02T17:47:17.962Z,6.50
2018-11-02T17:49:46.068Z,7.23
2018-11-02T17:52:14.698Z,7.47
2018-11-02T17:54:42.906Z,8.87
2018-11-02T17:57:11.089Z,10.27
2018-11-02T17:59:39.243Z,9.30
2018-11-02T18:02:07.552Z,8.97
2018-11-02T18:04:35.765Z,8.63
2018-11-02T18:07:04.636Z,7.73
2018-11-02T18:09:32.879Z,8.70
2018-11-02T18:12:01.475Z,8.30
2018-11-02T18:14:29.926Z,8.27
2018-11-02T18:16:58.082Z,8.03
2018-11-02T18:19:26.843Z,8.60
2018-11-02T18:21:55.518Z,9.00
2018-11-02T18:24:23.961Z,10.53
2018-11-02T18:26:52.325Z,12.10
2018-11-02T18:29:20.551Z,12.57
2018-11-02T18:31:48.735Z,12.03
2018-11-02T18:34:17.861Z,12.87
2018-11-02T18:36:47.148Z,13.73
2018-11-02T18:39:15.954Z,14.20
2018-11-02T18:41:44.625Z,14.00
2018-11-02T18:44:13.063Z,12.83
2018-11-02T18:46:41.654Z,11.97
2018-11-02T18:49:10.777Z,11.50
2018-11-02T18:51:40.903Z,9.77
2018-11-02T18:54:10.247Z,9.50
2018-11-02T18:56:38.486Z,9.37
2018-11-02T18:59:08.025Z,10.77
2018-11-02T19:01:36.371Z,10.13
2018-11-02T19:04:05.681Z,10.07
2018-11-02T19:06:33.982Z,9.60
2018-11-02T19:09:02.376Z,10.07
2018-11-02T19:11:30.755Z,10.77
2018-11-02T19:13:59.051Z,10.53
2018-11-02T19:16:27.340Z,11.50
2018-11-02T19:18:56.252Z,10.23
2018-11-02T19:21:24.929Z,11.37
2018-11-02T19:23:53.226Z,11.33
2018-11-02T19:26:21.710Z,12.00
2018-11-02T19:28:49.933Z,11.33
2018-11-02T19:31:18.289Z,12.80
2018-11-02T19:33:46.788Z,12.30
2018-11-02T19:36:15.146Z,14.80
2018-11-02T19:38:43.423Z,10.27
2018-11-02T19:41:11.572Z,9.83
2018-11-02T19:43:39.889Z,9.63
2018-11-02T19:46:08.115Z,8.13
2018-11-02T19:48:36.474Z,8.23
2018-11-02T19:51:05.124Z,6.33
2018-11-02T19:53:33.400Z,6.80
2018-11-02T19:56:01.542Z,7.23
2018-11-02T19:58:29.768Z,6.27
2018-11-02T20:00:58.010Z,6.23
2018-11-02T20:03:26.196Z,6.60
2018-11-02T20:05:54.358Z,7.23
2018-11-02T20:08:23.765Z,8.10
2018-11-02T20:10:57.145Z,9.03
2018-11-02T20:13:25.400Z,7.40
2018-11-02T20:15:53.638Z,7.27
2018-11-02T20:18:22.626Z,6.97
2018-11-02T20:20:50.823Z,8.03
2018-11-02T20:23:18.996Z,7.50
2018-11-02T20:25:47.210Z,7.37
2018-11-02T20:28:15.381Z,7.30
2018-11-02T20:30:43.699Z,6.90
2018-11-02T20:33:11.922Z,7.37
2018-11-02T20:35:40.102Z,9.80
2018-11-02T20:38:08.315Z,8.60
2018-11-02T20:40:36.556Z,6.90
2018-11-02T20:43:04.774Z,6.83
2018-11-02T20:45:32.998Z,6.80
2018-11-02T20:48:01.178Z,6.90
2018-11-02T20:50:29.353Z,7.43
2018-11-02T20:52:57.574Z,7.30
2018-11-02T20:55:25.822Z,6.90
2018-11-02T20:57:53.968Z,7.00
2018-11-02T21:00:23.295Z,7.30
2018-11-02T21:02:51.608Z,6.87
2018-11-02T21:05:20.353Z,7.00
2018-11-02T21:07:49.106Z,6.70
2018-11-02T21:10:18.404Z,8.53
2018-11-02T21:12:46.973Z,7.97
2018-11-02T21:15:18.567Z,8.03
2018-11-02T21:17:47.204Z,6.40
2018-11-02T21:20:16.658Z,6.73
2018-11-02T21:22:45.050Z,7.60
2018-11-02T21:25:13.869Z,7.60
2018-11-02T21:27:42.642Z,7.33
2018-11-02T21:30:13.871Z,7.67
2018-11-02T21:32:42.901Z,8.17
2018-11-02T21:35:11.125Z,8.00
2018-11-02T21:37:39.274Z,7.50
2018-11-02T21:40:10.687Z,8.00
2018-11-02T21:42:38.863Z,9.33
2018-11-02T21:45:07.041Z,8.23
2018-11-02T21:47:35.256Z,7.20
2018-11-02T21:50:03.995Z,7.17
2018-11-02T21:52:32.185Z,7.30
2018-11-02T21:55:00.342Z,7.53
2018-11-02T21:57:28.518Z,7.80
2018-11-02T21:59:56.667Z,7.37
2018-11-02T22:02:24.865Z,7.17
2018-11-02T22:04:53.077Z,7.13
2018-11-02T22:07:21.217Z,6.00
2018-11-02T22:09:49.467Z,6.10
2018-11-02T22:12:18.626Z,6.27
2018-11-02T22:14:46.820Z,6.27
2018-11-02T22:17:14.955Z,5.90
2018-11-02T22:19:43.183Z,6.30
2018-11-02T22:22:11.436Z,5.60
2018-11-02T22:24:39.772Z,6.27
2018-11-02T22:27:07.986Z,6.10
2018-11-02T22:29:36.186Z,6.23
2018-11-02T22:32:04.449Z,6.17
2018-11-02T22:34:32.629Z,8.30
2018-11-02T22:37:00.825Z,10.87
2018-11-02T22:39:29.112Z,10.07
2018-11-02T22:41:57.750Z,11.10
2018-11-02T22:44:25.920Z,11.17
2018-11-02T22:46:54.089Z,9.43
2018-11-02T22:49:22.318Z,7.23
2018-11-02T22:51:50.557Z,8.60
2018-11-02T22:54:18.800Z,9.03
2018-11-02T22:56:47.048Z,9.40
2018-11-02T22:59:15.261Z,10.43
2018-11-02T23:01:43.587Z,7.10
2018-11-02T23:04:11.864Z,8.57
2018-11-02T23:06:40.056Z,8.20
2018-11-02T23:09:08.865Z,6.43
2018-11-02T23:11:37.269Z,6.27
2018-11-02T23:14:06.354Z,6.10
2018-11-02T23:16:34.803Z,8.33
2018-11-02T23:19:03.038Z,13.03
2018-11-02T23:21:31.152Z,12.93
2018-11-02T23:23:59.333Z,11.30
2018-11-02T23:26:27.565Z,10.50
2018-11-02T23:28:55.760Z,11.73
2018-11-02T23:31:24.099Z,11.67
2018-11-02T23:33:52.329Z,14.17
2018-11-02T23:36:20.778Z,8.97
2018-11-02T23:38:48.994Z,9.23
2018-11-02T23:41:17.259Z,8.03
2018-11-02T23:43:45.404Z,9.00
2018-11-02T23:46:13.558Z,8.63
2018-11-02T23:48:41.776Z,8.17
2018-11-02T23:51:09.933Z,8.77
2018-11-02T23:53:38.136Z,7.80
2018-11-02T23:56:06.717Z,6.30
2018-11-02T23:58:35.470Z,7.07
